createdAt,value
2023-03-22T00:00:48.030Z,957.61
2023-03-22T00:06:20.191Z,957.57
2023-03-22T00:11:52.212Z,957.53
2023-03-22T00:17:23.941Z,957.49
2023-03-22T00:22:55.770Z,957.41
2023-03-22T00:28:27.629Z,957.33
2023-03-22T00:33:59.484Z,957.29
2023-03-22T00:39:31.185Z,957.19
2023-03-22T00:45:02.943Z,957.16
2023-03-22T00:50:35.012Z,957.16
2023-03-22T00:56:06.663Z,957.12
2023-03-22T01:01:38.412Z,957.14
2023-03-22T01:07:10.141Z,957.12
2023-03-22T01:12:42.147Z,957.08
2023-03-22T01:18:14.045Z,957.06
2023-03-22T01:23:46.186Z,957.04
2023-03-22T01:29:17.730Z,957.02
2023-03-22T01:34:49.809Z,956.94
2023-03-22T01:40:22.008Z,956.92
2023-03-22T01:45:53.927Z,956.86
2023-03-22T01:51:25.516Z,956.86
2023-03-22T01:56:57.461Z,956.86
2023-03-22T02:02:29.216Z,956.90
2023-03-22T02:08:01.585Z,956.92
2023-03-22T02:13:33.662Z,956.92
2023-03-22T02:19:05.385Z,956.92
2023-03-22T02:24:37.269Z,956.86
2023-03-22T02:30:09.478Z,956.84
2023-03-22T02:35:41.707Z,956.82
2023-03-22T02:41:14.003Z,956.80
2023-03-22T02:46:46.379Z,956.78
2023-03-22T02:52:18.164Z,956.84
2023-03-22T02:57:50.113Z,956.86
2023-03-22T03:03:22.329Z,956.88
2023-03-22T03:08:54.283Z,956.92
2023-03-22T03:14:26.514Z,956.88
2023-03-22T03:19:58.604Z,956.88
2023-03-22T03:25:30.888Z,956.84
2023-03-22T03:31:04.190Z,956.84
2023-03-22T03:36:36.392Z,956.84
2023-03-22T03:42:07.931Z,956.84
2023-03-22T03:47:39.975Z,956.86
2023-03-22T03:58:41.015Z,956.82
2023-03-22T04:04:13.110Z,956.82
2023-03-22T04:09:44.682Z,956.80
2023-03-22T04:15:16.655Z,956.80
2023-03-22T04:17:40.731Z,956.76
2023-03-22T04:23:12.254Z,956.76
2023-03-22T04:28:44.019Z,956.80
2023-03-22T04:34:15.426Z,956.80
2023-03-22T04:45:17.103Z,956.74
2023-03-22T04:50:48.898Z,956.72
2023-03-22T04:56:20.640Z,956.70
2023-03-22T05:01:52.714Z,956.69
2023-03-22T05:07:24.897Z,956.72
2023-03-22T05:12:56.715Z,956.72
2023-03-22T05:18:28.419Z,956.72
2023-03-22T05:23:59.920Z,956.74
2023-03-22T05:29:32.863Z,956.76
2023-03-22T05:35:04.998Z,956.78
2023-03-22T05:40:37.087Z,956.82
2023-03-22T05:46:09.098Z,956.84
2023-03-22T05:51:41.134Z,956.80
2023-03-22T05:57:13.129Z,956.80
2023-03-22T06:02:45.400Z,956.82
2023-03-22T06:13:46.691Z,956.86
2023-03-22T06:19:18.796Z,956.84
2023-03-22T06:24:50.321Z,956.84
2023-03-22T06:30:22.615Z,956.86
2023-03-22T06:35:54.045Z,956.84
2023-03-22T06:41:25.790Z,956.80
2023-03-22T06:46:57.535Z,956.84
2023-03-22T06:52:29.575Z,956.86
2023-03-22T06:58:01.356Z,956.88
2023-03-22T07:03:32.799Z,956.90
2023-03-22T07:09:04.435Z,956.92
2023-03-22T07:14:36.301Z,957.00
2023-03-22T07:20:08.240Z,957.02
2023-03-22T07:25:39.976Z,957.02
2023-03-22T07:31:11.826Z,957.00
2023-03-22T07:36:43.495Z,957.00
2023-03-22T07:42:15.786Z,956.98
2023-03-22T07:47:48.096Z,956.94
2023-03-22T07:53:20.427Z,956.94
2023-03-22T07:58:52.051Z,956.92
2023-03-22T08:04:23.724Z,956.94
2023-03-22T08:09:55.771Z,956.94
2023-03-22T08:15:26.913Z,956.92
2023-03-22T08:20:58.339Z,956.94
2023-03-22T08:26:29.902Z,956.90
2023-03-22T08:32:01.888Z,956.90
2023-03-22T08:37:33.158Z,956.84
2023-03-22T08:43:05.001Z,956.84
2023-03-22T08:48:36.787Z,956.84
2023-03-22T08:54:08.892Z,956.82
2023-03-22T08:59:41.070Z,956.76
2023-03-22T09:05:12.533Z,956.74
2023-03-22T09:10:44.326Z,956.72
2023-03-22T09:16:16.315Z,956.69
2023-03-22T09:21:47.559Z,956.65
2023-03-22T09:27:19.432Z,956.59
2023-03-22T09:32:51.332Z,956.55
2023-03-22T09:38:23.635Z,956.43
2023-03-22T09:43:55.520Z,956.37
2023-03-22T09:49:27.850Z,956.31
2023-03-22T09:54:59.642Z,956.31
2023-03-22T10:00:31.556Z,956.23
2023-03-22T10:06:03.255Z,956.16
2023-03-22T10:11:35.048Z,956.16
2023-03-22T10:17:07.054Z,956.08
2023-03-22T10:22:45.231Z,956.02
2023-03-22T10:28:17.123Z,955.98
2023-03-22T10:33:48.976Z,955.96
2023-03-22T10:39:20.891Z,955.92
2023-03-22T10:44:52.613Z,955.88
2023-03-22T10:50:24.341Z,955.86
2023-03-22T10:55:56.268Z,955.84
2023-03-22T11:01:28.485Z,955.80
2023-03-22T11:06:59.912Z,955.80
2023-03-22T11:12:32.081Z,955.78
2023-03-22T11:18:04.097Z,955.74
2023-03-22T11:23:36.071Z,955.76
2023-03-22T11:29:08.085Z,955.74
2023-03-22T11:34:40.064Z,955.72
2023-03-22T11:40:12.224Z,955.68
2023-03-22T11:45:44.186Z,955.62
2023-03-22T11:51:16.941Z,955.55
2023-03-22T11:56:48.044Z,955.51
2023-03-22T12:02:20.212Z,955.41
2023-03-22T12:07:52.053Z,955.37
2023-03-22T12:13:23.962Z,955.25
2023-03-22T12:18:56.080Z,955.15
2023-03-22T12:24:28.419Z,955.04
2023-03-22T12:30:00.268Z,955.00
2023-03-22T12:35:33.111Z,954.90
2023-03-22T12:41:04.767Z,954.80
2023-03-22T12:46:37.011Z,954.72
2023-03-22T12:52:08.736Z,954.65
2023-03-22T12:57:40.884Z,954.57
2023-03-22T13:03:14.373Z,954.55
2023-03-22T13:08:46.143Z,954.53
2023-03-22T13:14:18.342Z,954.47
2023-03-22T13:19:50.340Z,954.39
2023-03-22T13:25:22.037Z,954.37
2023-03-22T13:30:54.060Z,954.31
2023-03-22T13:36:26.312Z,954.25
2023-03-22T13:41:58.794Z,954.19
2023-03-22T13:47:30.765Z,954.19
2023-03-22T13:53:02.615Z,954.14
2023-03-22T13:58:34.624Z,954.14
2023-03-22T14:04:06.613Z,954.12
2023-03-22T14:09:39.153Z,954.10
2023-03-22T14:15:11.103Z,954.04
2023-03-22T14:20:43.772Z,953.98
